Terminal Aerodrome Forecast
Issued by NWS Hastings, NE

Home | Current Version | Previous Version | Text Only | Print | Product List | Glossary On
Versions: 1 2 3 4 5 6 7 8 9 10 11 12 13 14 15 16 17 18 19 20
000
FTUS45 KGID 011720
TAFEAR
TAF
KEAR 011720Z 0118/0218 VRB06KT P6SM SCT150
     FM020000 02008KT P6SM BKN150
     FM020900 35012KT 5SM -SHRA SCT015 OVC050
     FM021300 34016G21KT 5SM -SHRA OVC015
      AMD LTD TO CLD VIS AND WIND=

USA.gov is the U.S. government's official web portal to all federal, state and local government web resources and services.